»·PEaware :: SWA2788 KPDX-KGEG

SWA2788 :: KPDX-KGEG

FLIGHT INFORMATION

Flight Status: Arrived
Operator:
Southwest Airlines
More flights by this operator :: More flights under this callsign
Pilot: Sanjiv S. (4490)
Aircraft: BOEING 737-800
(B738)
More flights by this aircraft type
Origin: KPDX Portland Intl
United States
Destination: KGEG Spokane Intl
United States
More flights between these airports :: More routes between these airports
Route: +LAVAA6 YKM PAPPS ZOOMR ZOOMR1
File this flight plan on PilotEdge
Remarks:
Altitude:
(Current/Filed)
27,000ft
Speed:
(Current/Filed)
430kts
Departed: 17-Mar-18 08:50 PM
Arrived: 17-Mar-18 09:41 PM
Distance/Time
Traveled:
242nm/0:50
Distance/Time
To Go:
Arrived

Flight Plot

Page will automatically refresh every two minutes.

Flight plan parsing failed; only flown route is shown


Map Options




Map Legend


Flown Route
Filed Route
Departure Airport
Arrival Airport
Navaid (VOR, NDB)
Fix

Horizontal Profiles

Position Reports

Time Latitude Longitude Heading Altitude Ground
Speed
17-Mar-18 20:06 45.589006 -122.597931 12 36ft 0kts
17-Mar-18 20:07 45.589006 -122.597931 12 36ft 0kts
17-Mar-18 20:08 45.589006 -122.597931 12 36ft 0kts
17-Mar-18 20:09 45.589006 -122.597931 12 36ft 0kts
17-Mar-18 20:10 45.589006 -122.597931 12 36ft 0kts
17-Mar-18 20:11 45.589006 -122.597931 12 36ft 0kts
17-Mar-18 20:12 45.589006 -122.597931 12 36ft 0kts
17-Mar-18 20:13 45.589006 -122.597931 12 36ft 0kts
17-Mar-18 20:14 45.589006 -122.597931 12 36ft 0kts
17-Mar-18 20:15 45.589006 -122.597931 12 36ft 0kts
17-Mar-18 20:16 45.589006 -122.597931 12 36ft 0kts
17-Mar-18 20:17 45.589006 -122.597931 12 36ft 0kts
17-Mar-18 20:18 45.589006 -122.597931 12 36ft 0kts
17-Mar-18 20:19 45.589006 -122.597931 12 36ft 0kts
17-Mar-18 20:20 45.589006 -122.597931 12 36ft 0kts
17-Mar-18 20:21 45.589006 -122.597931 12 36ft 0kts
17-Mar-18 20:22 45.589006 -122.597931 12 36ft 0kts
17-Mar-18 20:23 45.589006 -122.597931 12 36ft 0kts
17-Mar-18 20:24 45.589006 -122.597931 12 36ft 0kts
17-Mar-18 20:25 45.589006 -122.597931 12 36ft 0kts
17-Mar-18 20:26 45.589006 -122.597931 12 36ft 0kts
17-Mar-18 20:27 45.589006 -122.597931 12 36ft 0kts
17-Mar-18 20:28 45.589006 -122.597931 12 36ft 0kts
17-Mar-18 20:29 45.589006 -122.597931 12 36ft 0kts
17-Mar-18 20:30 45.589006 -122.597931 12 36ft 0kts
17-Mar-18 20:31 45.589006 -122.597931 12 36ft 0kts
17-Mar-18 20:32 45.589006 -122.597931 12 36ft 0kts
17-Mar-18 20:33 45.589006 -122.597931 12 36ft 0kts
17-Mar-18 20:34 45.589006 -122.597931 12 36ft 0kts
17-Mar-18 20:35 45.589006 -122.597931 12 36ft 0kts
17-Mar-18 20:36 45.589006 -122.597931 12 37ft 0kts
17-Mar-18 20:37 45.588615 -122.597847 324 37ft 2kts
17-Mar-18 20:38 45.588446 -122.597564 298 37ft 0kts
17-Mar-18 20:39 45.588446 -122.597564 298 37ft 0kts
17-Mar-18 20:40 45.588446 -122.597564 298 37ft 0kts
17-Mar-18 20:41 45.588446 -122.597564 298 37ft 0kts
17-Mar-18 20:42 45.588596 -122.598509 278 37ft 9kts
17-Mar-18 20:43 45.589634 -122.601927 299 36ft 10kts
17-Mar-18 20:44 45.591219 -122.602082 46 37ft 9kts
17-Mar-18 20:45 45.593292 -122.599154 44 37ft 12kts
17-Mar-18 20:46 45.594396 -122.597578 43 36ft 0kts
17-Mar-18 20:47 45.594468 -122.597479 43 36ft 4kts
17-Mar-18 20:48 45.594770 -122.595532 119 36ft 6kts
17-Mar-18 20:49 45.581103 -122.561002 116 704ft 190kts
17-Mar-18 20:50 45.569125 -122.491893 94 3452ft 224kts
17-Mar-18 20:51 45.557535 -122.411827 103 6145ft 260kts
17-Mar-18 20:52 45.550809 -122.318942 61 7476ft 279kts
17-Mar-18 20:53 45.588698 -122.252977 45 10220ft 287kts
17-Mar-18 20:54 45.629338 -122.190069 45 11918ft 324kts
17-Mar-18 20:55 45.660526 -122.129772 64 13810ft 337kts
17-Mar-18 20:56 45.693996 -122.020878 64 16553ft 350kts
17-Mar-18 20:57 45.720817 -121.936431 63 18498ft 360kts
17-Mar-18 20:58 45.761072 -121.828333 46 20844ft 369kts
17-Mar-18 20:59 45.817869 -121.735717 46 22968ft 381kts
17-Mar-18 21:00 45.883368 -121.626340 46 25157ft 394kts
17-Mar-18 21:01 45.942423 -121.526793 46 26901ft 403kts
17-Mar-18 21:02 46.009914 -121.412594 47 27037ft 444kts
17-Mar-18 21:03 46.100615 -121.258144 47 27024ft 447kts
17-Mar-18 21:04 46.151632 -121.170933 48 27026ft 446kts
17-Mar-18 21:05 46.223169 -121.048189 48 26994ft 445kts
17-Mar-18 21:06 46.292964 -120.927871 49 26954ft 445kts
17-Mar-18 21:07 46.368458 -120.797113 49 26954ft 445kts
17-Mar-18 21:08 46.438919 -120.674537 49 26954ft 445kts
17-Mar-18 21:09 46.502976 -120.562636 49 26954ft 445kts
17-Mar-18 21:10 46.543971 -120.472201 69 26959ft 447kts
17-Mar-18 21:11 46.544730 -120.341240 105 26910ft 446kts
17-Mar-18 21:12 46.507939 -120.170873 108 26899ft 446kts
17-Mar-18 21:13 46.468817 -119.998631 108 26899ft 446kts
17-Mar-18 21:14 46.475775 -119.825043 60 26902ft 446kts
17-Mar-18 21:15 46.556065 -119.681946 47 26899ft 446kts
17-Mar-18 21:16 46.638169 -119.553845 46 26899ft 446kts
17-Mar-18 21:17 46.722365 -119.423509 46 26899ft 446kts
17-Mar-18 21:18 46.792089 -119.315115 47 26899ft 446kts
17-Mar-18 21:19 46.877234 -119.182129 47 26899ft 446kts
17-Mar-18 21:20 46.961717 -119.049503 47 26899ft 446kts
17-Mar-18 21:21 47.046893 -118.915085 47 26899ft 446kts
17-Mar-18 21:22 47.127791 -118.786802 47 25919ft 407kts
17-Mar-18 21:23 47.203202 -118.666678 47 23449ft 388kts
17-Mar-18 21:24 47.274718 -118.552248 47 21217ft 375kts
17-Mar-18 21:25 47.344707 -118.439790 47 19036ft 363kts
17-Mar-18 21:26 47.406767 -118.339691 47 17103ft 353kts
17-Mar-18 21:27 47.449958 -118.214677 78 14997ft 342kts
17-Mar-18 21:28 47.472844 -118.082540 73 13082ft 332kts
17-Mar-18 21:29 47.497669 -117.959357 73 11302ft 323kts
17-Mar-18 21:30 47.540836 -117.856548 45 9697ft 288kts
17-Mar-18 21:31 47.592302 -117.778207 45 7321ft 278kts
17-Mar-18 21:32 47.641607 -117.703163 45 5587ft 249kts
17-Mar-18 21:33 47.688310 -117.632043 45 4985ft 235kts
17-Mar-18 21:34 47.732613 -117.563611 55 4986ft 225kts
17-Mar-18 21:35 47.743452 -117.475107 84 4956ft 201kts
17-Mar-18 21:36 47.722735 -117.409111 166 4021ft 190kts
17-Mar-18 21:37 47.681808 -117.441318 226 3759ft 169kts
17-Mar-18 21:38 47.651512 -117.487561 225 2934ft 144kts
17-Mar-18 21:39 47.624094 -117.529086 225 2355ft 108kts
17-Mar-18 21:40 47.620082 -117.537135 254 2366ft 0kts
17-Mar-18 21:41 47.620082 -117.537135 254 2366ft 0kts
17-Mar-18 21:42 47.620068 -117.538534 332 2366ft 2kts
17-Mar-18 21:43 47.622670 -117.536879 44 2363ft 8kts
17-Mar-18 21:44 47.624651 -117.533647 38 2358ft 11kts
17-Mar-18 21:45 47.625598 -117.534040 281 2358ft 0kts

Navigation Log

Ident Type
Flight plan parsing failed, navigation log unavailable